Boynton Beach, Florida
Current Conditions -  °F | °C
As of 6:53 PM on Saturday 22 Nov 2014 (Local Time) from KPBI Reporting Station
Overcast Overcast  
Wind Chill: 77°   Ceiling: 2000
Heat Index: 79°   Visibility: 10mi
Dew Point: 69°   Wind: 24mph
Humidity: 76%   Direction: 90°E
Pressure: 30.09"   Gusts: 33mph
Location:  26.53°N, 80.06°W
Report Text: KPBI 222353Z 09021G29KT 10SM BKN020 OVC045 25/21 A3009 RMK AO2 PK WND 08029/2339 SLP190 T02500206 10272 20250 55004
Loading
Personal Weather Stations






























Interactive Weather Map New forecast layout! Learn more

10-Day Weather Forecast

Advertisements
Track Severe Weather on mobile